Kortenberg, Belgium
Current Conditions -  °F | °C
As of 3:20 PM on Friday 31 Oct 2014 (Local Time) from EBBR Reporting Station
Clear Clear  
Wind Chill: 66°   Ceiling: Unl
Heat Index: 66°   Visibility: 6mi
Dew Point: 55°   Wind: 3mph
Humidity: 68%   Direction: 150°SSE
Pressure: 30.15"   Gusts: NA
Location:  50.89°N, 4.54°E
Report Text: EBBR 311420Z 15003KT CAVOK 19/13 Q1021 NOSIG
Loading
Personal Weather Stations






























Interactive Weather Map New forecast layout! Learn more

10-Day Weather Forecast

Advertisements
Track Severe Weather on mobile